createdAt,value
2022-09-27T00:04:44.249Z,99343.72
2022-09-27T00:14:48.872Z,99325.72
2022-09-27T00:24:52.364Z,99306.66
2022-09-27T00:34:57.025Z,99311.94
2022-09-27T00:45:11.396Z,99299.13
2022-09-27T00:55:18.242Z,99279.66
2022-09-27T01:05:23.137Z,99264.25
2022-09-27T01:15:32.959Z,99268.03
2022-09-27T01:25:52.413Z,99270.03
2022-09-27T01:36:12.185Z,99261.03
2022-09-27T01:46:19.798Z,99241.63
2022-09-27T01:56:28.577Z,99239.19
2022-09-27T02:06:34.875Z,99214.81
2022-09-27T02:16:48.617Z,99199.53
2022-09-27T02:26:58.389Z,99201.91
2022-09-27T02:37:03.158Z,99201.53
2022-09-27T02:47:14.877Z,99197.88
2022-09-27T02:57:22.933Z,99202.69
2022-09-27T03:07:26.668Z,99185.09
2022-09-27T03:17:31.259Z,99185.81
2022-09-27T03:27:34.575Z,99180.50
2022-09-27T03:37:39.218Z,99167.38
2022-09-27T03:47:42.552Z,99162.91
2022-09-27T03:57:48.266Z,99154.59
2022-09-27T04:07:51.609Z,99142.06
2022-09-27T04:17:56.247Z,99144.91
2022-09-27T04:28:02.511Z,99153.88
2022-09-27T04:38:07.100Z,99157.19
2022-09-27T04:48:10.234Z,99140.59
2022-09-27T04:58:14.804Z,99135.44
2022-09-27T05:08:17.969Z,99136.84
2022-09-27T05:18:22.956Z,99130.63
2022-09-27T05:28:26.154Z,99121.06
2022-09-27T05:38:30.928Z,99112.13
2022-09-27T05:48:34.255Z,99122.38
2022-09-27T05:58:38.796Z,99109.44
2022-09-27T06:08:42.151Z,99102.13
2022-09-27T06:18:46.729Z,99096.41
2022-09-27T06:28:51.208Z,99105.72
2022-09-27T06:38:55.780Z,99111.09
2022-09-27T06:48:58.945Z,99101.72
2022-09-27T06:59:21.209Z,99098.50
2022-09-27T07:09:24.203Z,99097.84
2022-09-27T07:19:28.799Z,99098.34
2022-09-27T07:29:32.314Z,99093.69
2022-09-27T07:39:36.925Z,99111.59
2022-09-27T07:49:40.061Z,99120.69
2022-09-27T07:59:45.329Z,99098.50
2022-09-27T08:09:48.547Z,99099.78
2022-09-27T08:19:53.632Z,99093.00
2022-09-27T08:29:56.774Z,99078.13
2022-09-27T08:40:01.710Z,99063.06
2022-09-27T08:50:16.003Z,99066.72
2022-09-27T09:00:21.355Z,99065.84
2022-09-27T09:10:53.432Z,99059.72
2022-09-27T09:21:02.782Z,99050.19
2022-09-27T09:31:10.438Z,99054.47
2022-09-27T09:41:20.397Z,99007.66
2022-09-27T09:51:27.536Z,99004.19
2022-09-27T10:01:37.388Z,99003.81
2022-09-27T10:11:42.320Z,98995.78
2022-09-27T10:21:48.031Z,98990.88
2022-09-27T10:31:52.161Z,98979.34
2022-09-27T10:41:56.777Z,98971.03
2022-09-27T10:52:01.846Z,98973.63
2022-09-27T11:02:07.251Z,98973.00
2022-09-27T11:12:11.833Z,98966.13
2022-09-27T11:22:27.285Z,98954.28
2022-09-27T11:32:37.994Z,98933.75
2022-09-27T11:43:15.417Z,98927.13
2022-09-27T11:53:27.624Z,98904.56
2022-09-27T12:04:11.353Z,98891.34
2022-09-27T12:14:23.509Z,98878.94
2022-09-27T12:24:30.946Z,98875.03
2022-09-27T12:34:38.811Z,98848.69
2022-09-27T12:44:47.469Z,98831.00
2022-09-27T12:55:24.052Z,98837.00
2022-09-27T13:06:01.010Z,98820.94
2022-09-27T13:16:06.280Z,98813.13
2022-09-27T13:26:23.752Z,98799.06
2022-09-27T13:36:33.146Z,98808.75
2022-09-27T13:46:37.024Z,98799.22
2022-09-27T13:56:56.318Z,98788.28
2022-09-27T14:07:01.982Z,98778.44
2022-09-27T14:17:10.229Z,98764.00
2022-09-27T14:27:17.365Z,98813.88
2022-09-27T14:37:26.080Z,98830.34
2022-09-27T14:47:29.674Z,98847.00
2022-09-27T14:57:35.990Z,98840.66
2022-09-27T15:07:39.447Z,98850.34
2022-09-27T15:17:44.965Z,98855.03
2022-09-27T15:27:50.129Z,98866.88
2022-09-27T15:38:11.864Z,98877.84
2022-09-27T15:48:16.737Z,98897.41
2022-09-27T15:58:22.728Z,98903.25
2022-09-27T16:08:26.125Z,98906.72
2022-09-27T16:18:31.615Z,98918.31
2022-09-27T16:28:34.833Z,98917.50
2022-09-27T16:38:39.230Z,98934.13
2022-09-27T16:48:42.309Z,98940.53
2022-09-27T16:58:46.792Z,98949.41
2022-09-27T17:08:49.918Z,98946.47
2022-09-27T17:18:54.435Z,98973.19
2022-09-27T17:28:58.140Z,98978.75
2022-09-27T17:39:03.449Z,98965.81
2022-09-27T17:49:20.672Z,98994.69
2022-09-27T17:59:26.018Z,99001.81
2022-09-27T18:09:29.299Z,99002.63
2022-09-27T18:19:33.776Z,99001.91
2022-09-27T18:29:37.020Z,99001.50
2022-09-27T18:39:41.481Z,99019.25
2022-09-27T18:49:44.700Z,99050.78
2022-09-27T18:59:49.259Z,99057.56
2022-09-27T19:09:52.728Z,99042.91
2022-09-27T19:19:57.244Z,99053.84
2022-09-27T19:30:00.339Z,99063.94
2022-09-27T19:40:05.719Z,99075.88
2022-09-27T19:50:09.818Z,99072.19
2022-09-27T20:00:14.713Z,99079.84
2022-09-27T20:10:17.841Z,99069.38
2022-09-27T20:20:22.286Z,99073.25
2022-09-27T20:30:25.869Z,99087.56
2022-09-27T20:40:30.332Z,99094.16
2022-09-27T20:50:33.680Z,99100.75
2022-09-27T21:00:38.264Z,99087.97
2022-09-27T21:10:41.435Z,99075.88
2022-09-27T21:20:45.884Z,99089.91
2022-09-27T21:30:49.007Z,99098.06
2022-09-27T21:40:58.322Z,99120.28
2022-09-27T21:51:06.174Z,99094.06
2022-09-27T22:01:12.175Z,99084.94
2022-09-27T22:11:16.542Z,99108.84
2022-09-27T22:21:22.697Z,99108.66
2022-09-27T22:31:25.798Z,99123.91
2022-09-27T22:41:30.591Z,99111.75
2022-09-27T22:51:33.861Z,99115.25
2022-09-27T23:01:38.384Z,99124.66
2022-09-27T23:11:41.487Z,99122.34
2022-09-27T23:21:45.974Z,99164.97
2022-09-27T23:31:49.144Z,99165.06
2022-09-27T23:41:53.806Z,99146.94
2022-09-27T23:51:56.860Z,99152.84
